PAEN/ENA METAR and TAF weather

Enter ICAO airport designator
Station Type Date Time Source
PAEN METAR 2019/08/22 09:16 UTC NOAA

PAEN 220916Z AUTO 00000KT 1/4SM FU OVC049 05/04 A2968 RMK AO2 T00500044 TSNO


Station Type Date Time Source
PAEN Decoded METAR 2019/08/22 09:16 UTC NOAA

Station name not available
Aug 22, 2019 - 05:16 AM EDT / 2019.08.22 0916 UTC
Wind: Calm:0
Visibility: 1/4 mile(s):0
Sky conditions: overcast
Weather: smoke
Temperature: 41.0 F (5.0 C)
Dew Point: 39.9 F (4.4 C)
Relative Humidity: 95%
Pressure (altimeter): 29.68 in. Hg (1005 hPa)
ob: PAEN 220916Z AUTO 00000KT 1/4SM FU OVC049 05/04 A2968 RMK AO2 T00500044 TSNO
cycle: 9

Station Type Date Time Source
PAEN TAF 2019/08/22 08:24 UTC NOAA

TAF
AMD PAEN 220822Z 2208/2306 VRB04KT P6SM SCT200
TEMPO 2208/2212 3/4SM FU
FM221800 05005KT 3SM FU SCT020 BKN100

Example: see airport list